This is the latest recevied weather packets stored in our database for station/object K5NWZ. If no packets are shown the sender has not sent any weather packets the latest 10 day(s).
| Time | Temp. | Humidity | Pressure | Rain* | Wind** | Luminosity | Snow |
|---|---|---|---|---|---|---|---|
| 1778178205 | 19.44° C | 30% | 1023.3 hPa | 0 mm | - | 1033 W/m² | - |
| 1778177901 | 19.44° C | 29% | 1023.3 hPa | 0 mm | - | 934 W/m² | - |
| 1778177597 | 18.89° C | 31% | 1023.7 hPa | 0 mm | - | 588 W/m² | - |
| 1778177293 | 18.89° C | 30% | 1023.5 hPa | 0 mm | - | 348 W/m² | - |
| 1778176990 | 17.78° C | 33% | 1023.7 hPa | 0 mm | - | 885 W/m² | - |
| 1778176685 | 17.22° C | 35% | 1023.7 hPa | 0 mm | - | 619 W/m² | - |
| 1778176382 | 17.78° C | 34% | 1023.8 hPa | 0 mm | - | 428 W/m² | - |
| 1778176080 | 17.78° C | 33% | 1023.8 hPa | 0 mm | - | 885 W/m² | - |
| 1778175778 | 17.78° C | 33% | 1023.7 hPa | 0 mm | - | 812 W/m² | - |
| 1778175475 | 17.78° C | 33% | 1024 hPa | 0 mm | - | 786 W/m² | - |
| 1778175172 | 17.22° C | 33% | 1024 hPa | 0 mm | - | 757 W/m² | - |
| 1778174868 | 17.22° C | 33% | 1024 hPa | 0 mm | - | 757 W/m² | - |
| 1778174565 | 17.78° C | 32% | 1023.9 hPa | 0 mm | - | 808 W/m² | - |
| 1778174260 | 17.22° C | 32% | 1024.1 hPa | 0 mm | - | 780 W/m² | - |
| 1778173958 | 16.67° C | 33% | 1024.4 hPa | 0 mm | - | 647 W/m² | - |
| 1778173655 | 16.67° C | 34% | 1024.4 hPa | 0 mm | - | 776 W/m² | - |
| 1778173352 | 17.22° C | 35% | 1024.5 hPa | 0 mm | - | 784 W/m² | - |
| 1778173047 | 16.67° C | 33% | 1024.6 hPa | 0 mm | - | 789 W/m² | - |
| 1778172743 | 16.11° C | 35% | 1024.6 hPa | 0 mm | - | 632 W/m² | - |
| 1778172439 | 16.11° C | 35% | 1024.7 hPa | 0 mm | - | 453 W/m² | - |
| 1778172137 | 16.11° C | 35% | 1024.5 hPa | 0 mm | - | 418 W/m² | - |
| 1778171834 | 15° C | 43% | 1024.2 hPa | 0 mm | - | 537 W/m² | - |
| 1778171532 | 15.56° C | 36% | 1024.5 hPa | 0 mm | - | 279 W/m² | - |
| 1778171228 | 15° C | 35% | 1024.5 hPa | 0 mm | - | 301 W/m² | - |
| 1778170924 | 15° C | 38% | 1024.7 hPa | 0 mm | - | 292 W/m² | - |
* Rain latest hour (hover to see other rain measurements)
** Current wind speed in m/s (hover to see current wind gust speed)